• Join FlightAware (Why Join?)
  • Login
  • US Flag 
10:14PM EDT


 

Airport Tracker/Info


-or-


 

Live Flight TrackerFlight Track Log ✈ N3LA ✈ 25-Jul-2013 ✈ KPSF - KHYA

Flight Track Log - Related Links

Times and Time Zones

All times are in EDT time to prevent confusion due to time zone crossing. See the N3LA flight status page for this flight to view local times or setup timezone preferences in your user account.

Time Position Orientation Groundspeed Altitude Reporting Facility
EDT Latitude Longitude Course Direction KTS MPH feet Rate Location/Type
03:42PM 42.4414 -73.2503 185° South 132 152 2,400  Level Boston Center
03:44PM 42.3975 -73.2553 185° South 125 144 3,600 780 Climbing Boston Center
03:44PM 42.3686 -73.2297 147° Southeast 129 148 4,300 720 Climbing Boston Center
03:46PM 42.3333 -73.1983 147° Southeast 139 160 5,100 720 Climbing Boston Center
03:47PM 42.2939 -73.1669 150° Southeast 144 166 5,900 600 Climbing Boston Center
03:48PM 42.2692 -73.1247 128° Southeast 157 181 6,400 480 Climbing Boston Center
03:49PM 42.2528 -73.0683 111° Southeast 158 182 6,900 300 Climbing Boston Center
03:50PM 42.2364 -73.0233 116° Southeast 166 191 7,000  Climbing Boston Center
03:51PM 42.2158 -72.9586 113° Southeast 185 213 7,000  Level Boston Center
03:52PM 42.1911 -72.9053 122° Southeast 177 204 7,000  Level Boston Center
03:53PM 42.1475 -72.8658 146° Southeast 176 203 7,000  Level Boston Center
03:54PM 42.1100 -72.8319 146° Southeast 176 203 7,000  Level Boston Center
03:55PM 42.0706 -72.7869 140° Southeast 176 203 7,000  Level Boston Center
03:56PM 42.0394 -72.7531 141° Southeast 171 197 7,000  Level Boston Center
03:57PM 41.9894 -72.7056 145° Southeast 169 194 7,000  Level Boston Center
03:58PM 41.9500 -72.6689 145° Southeast 167 192 7,000  Level Boston Center
03:59PM 41.9125 -72.6325 144° Southeast 169 194 7,000  Level Boston Center
04:00PM 41.8731 -72.5822 136° Southeast 170 196 7,000  Level Boston Center
04:01PM 41.8397 -72.5403 137° Southeast 174 200 7,000  Level Boston Center
04:02PM 41.8022 -72.4958 139° Southeast 173 199 7,000  Level Boston Center
04:03PM 41.7711 -72.4539 135° Southeast 173 199 7,000  Level Boston Center
04:03PM 41.7522 -72.4317 139° Southeast 176 203 7,000  Level Boston Center
04:04PM 41.7086 -72.3900 144° Southeast 169 194 7,000  Level Boston Center
04:06PM 41.6625 -72.3483 146° Southeast 170 196 7,000  Level Boston Center
04:07PM 41.6189 -72.3125 148° Southeast 174 200 7,000  Level Boston Center
04:08PM 41.5833 -72.2819 147° Southeast 173 199 7,000  Level Boston Center
04:09PM 41.5311 -72.2625 164° South 163 188 7,000  Level Boston Center
04:10PM 41.4833 -72.2517 170° South 174 200 7,000  Level Boston Center
04:11PM 41.4353 -72.2492 178° South 169 194 7,000  Level Boston Center
04:12PM 41.3917 -72.2464 177° South 174 200 7,000  Level Boston Center
04:13PM 41.3436 -72.2467 180° South 164 189 7,000  Level Boston Center
04:14PM 41.2956 -72.2247 161° South 165 190 7,100  Climbing Boston Center
04:15PM 41.2831 -72.1583 104° East 179 206 7,000 -60 Descending Boston Center
04:16PM 41.2828 -72.0919 90° East 169 194 7,000  Level Boston Center
04:17PM 41.2931 -72.0339 77° East 170 196 7,000  Level Boston Center
04:18PM 41.3031 -71.9675 79° East 172 198 7,000  Level Boston Center
04:19PM 41.3300 -71.9150 56° Northeast 174 200 7,000  Level Boston Center
04:20PM 41.3631 -71.8675 47° Northeast 175 201 7,000  Level Boston Center
04:21PM 41.3942 -71.8203 49° Northeast 177 204 7,000  Level Boston Center
04:22PM 41.4250 -71.7619 55° Northeast 179 206 7,000  Level Boston Center
04:23PM 41.4581 -71.7061 52° Northeast 179 206 7,000  Level Boston Center
04:24PM 41.4847 -71.6503 57° Northeast 175 201 7,000  Level Boston Center
04:25PM 41.5117 -71.6056 51° Northeast 179 206 7,000  Level Boston Center
04:26PM 41.5383 -71.5497 57° Northeast 177 204 7,000  Level Boston Center
04:27PM 41.5669 -71.4967 54° Northeast 179 206 7,000  Level Boston Center
04:28PM 41.5936 -71.4381 59° Northeast 181 208 7,000  Level Boston Center
04:29PM 41.6056 -71.3711 77° East 173 199 7,000  Level Boston Center
04:30PM 41.6111 -71.3072 83° East 171 197 7,000  Level Boston Center
04:31PM 41.6147 -71.2433 86° East 168 193 7,000  Level Boston Center
04:32PM 41.6222 -71.1822 81° East 169 194 7,000 -120 Level Boston Center
04:33PM 41.6278 -71.1181 83° East 168 193 6,800 -420 Descending Boston Center
04:34PM 41.6292 -71.0486 88° East 185 213 6,200 -600 Descending Boston Center
04:36PM 41.6314 -70.9508 88° East  Level FlightAware Approximate
04:43PM 41.6521 -70.4998 85° East  Level FlightAware Approximate
04:44PM 41.6562 -70.4354 85° East  Level FlightAware Approximate
04:45PM 41.6602 -70.3711 85° East  Level FlightAware Approximate
04:46PM 41.6642 -70.3067 85° East  Level FlightAware Approximate
04:47PM 41.6693 -70.2804 85° East  Level Estimated
04:48PM 41.6693 -70.2804 85° East  Level Estimated
04:49PM 41.6693 -70.2804 85° East  Level Estimated
04:50PM 41.6693 -70.2804 85° East  Level Estimated
04:51PM 41.6693 -70.2804 85° East  Level Estimated
04:52PM 41.6693 -70.2804 85° East  Level Estimated
04:53PM 41.6693 -70.2804 85° East  Level Estimated
04:54PM 41.6693 -70.2804 85° East  Level Estimated
04:55PM 41.6693 -70.2804 85° East  Level Estimated
04:56PM 41.6693 -70.2804 85° East  Level Estimated
04:57PM 41.6693 -70.2804 85° East  Level Estimated
04:58PM 41.6693 -70.2804 85° East  Level Estimated